Time;durP1;ratioP1;P1;durP2;ratioP2;P2;SDS_P1;SDS_P2;PMS_P1;PMS_P2;Temp;Humidity;BMP_temperature;BMP_pressure;BME280_temperature;BME280_humidity;BME280_pressure;Samples;Min_cycle;Max_cycle;Signal;HPM_P1;HPM_P2
2022/12/19 00:01:46;;;;;;;52.28;30.02;;;;;;;;;;4989526;28;20050;-72
2022/12/19 00:04:32;;;;;;;50.80;30.60;;;;;;;;;;4992297;28;20113;-73
2022/12/19 00:07:18;;;;;;;49.47;29.25;;;;;;;;;;4990989;28;20042;-73
2022/12/19 00:10:05;;;;;;;47.78;29.48;;;;;;;;;;4992254;28;20101;-73
2022/12/19 00:12:52;;;;;;;52.90;30.35;;;;;;;;;;4991702;28;20057;-71
2022/12/19 00:15:38;;;;;;;53.22;29.95;;;;;;;;;;4990858;28;20054;-72
2022/12/19 00:18:24;;;;;;;50.38;30.00;;;;;;;;;;4992800;28;20051;-73
2022/12/19 00:21:12;;;;;;;55.22;29.88;;;;;;;;;;4989969;28;20074;-72
2022/12/19 00:24:03;;;;;;;50.38;29.98;;;;;;;;;;4986688;28;20052;-73
2022/12/19 00:26:49;;;;;;;52.88;30.13;;;;;;;;;;4988393;28;20042;-71
2022/12/19 00:29:36;;;;;;;49.83;30.02;;;;;;;;;;4975007;28;20042;-73
2022/12/19 00:32:22;;;;;;;51.03;28.98;;;;;;;;;;4990329;28;20489;-72
2022/12/19 00:35:09;;;;;;;50.38;29.17;;;;;;;;;;4992525;28;20519;-73
2022/12/19 00:37:55;;;;;;;49.05;28.23;;;;;;;;;;4993034;28;20061;-72
2022/12/19 00:40:41;;;;;;;49.13;28.42;;;;;;;;;;4980001;28;20042;-72
2022/12/19 00:43:28;;;;;;;51.83;29.13;;;;;;;;;;4994255;28;20070;-73
2022/12/19 00:46:15;;;;;;;45.25;27.90;;;;;;;;;;4991528;28;20517;-73
2022/12/19 00:49:02;;;;;;;45.35;27.52;;;;;;;;;;5007384;28;20050;-73
2022/12/19 00:51:48;;;;;;;45.63;28.05;;;;;;;;;;4991890;28;20154;-72
2022/12/19 00:54:34;;;;;;;45.67;27.20;;;;;;;;;;4991716;28;20056;-73
2022/12/19 00:57:21;;;;;;;47.17;27.45;;;;;;;;;;4992550;28;20559;-73
2022/12/19 01:00:07;;;;;;;48.55;29.05;;;;;;;;;;4989407;28;20093;-71
2022/12/19 01:02:54;;;;;;;49.47;27.48;;;;;;;;;;4985670;28;20068;-72
2022/12/19 01:05:40;;;;;;;46.83;27.23;;;;;;;;;;4991946;28;20424;-73
2022/12/19 01:08:26;;;;;;;51.53;28.33;;;;;;;;;;4991973;28;20065;-73
2022/12/19 01:11:13;;;;;;;45.58;27.33;;;;;;;;;;4992005;28;20050;-72
2022/12/19 01:13:59;;;;;;;46.05;27.08;;;;;;;;;;4989679;28;20097;-73
2022/12/19 01:16:45;;;;;;;49.38;28.55;;;;;;;;;;4991761;28;20050;-73
2022/12/19 01:19:32;;;;;;;47.90;27.40;;;;;;;;;;4990651;28;20050;-72
2022/12/19 01:22:18;;;;;;;44.45;27.45;;;;;;;;;;4989336;28;20046;-72
2022/12/19 01:25:05;;;;;;;48.75;27.45;;;;;;;;;;4990472;28;20053;-73
2022/12/19 01:27:54;;;;;;;48.50;28.20;;;;;;;;;;4984812;28;20428;-71
2022/12/19 01:30:41;;;;;;;49.47;28.85;;;;;;;;;;4988488;28;20050;-73
2022/12/19 01:33:27;;;;;;;44.28;26.80;;;;;;;;;;4987098;28;20054;-72
2022/12/19 01:36:13;;;;;;;45.83;27.55;;;;;;;;;;4990276;28;20038;-72
2022/12/19 01:39:00;;;;;;;47.38;27.67;;;;;;;;;;4986331;28;20050;-73
2022/12/19 01:41:46;;;;;;;46.83;27.73;;;;;;;;;;4986474;28;20057;-72
2022/12/19 01:44:33;;;;;;;50.90;28.90;;;;;;;;;;4990684;28;20083;-71
2022/12/19 01:47:19;;;;;;;46.30;28.05;;;;;;;;;;4990320;28;20043;-73
2022/12/19 01:50:11;;;;;;;48.50;27.77;;;;;;;;;;4990636;28;20089;-73
2022/12/19 01:52:58;;;;;;;49.58;27.92;;;;;;;;;;4984185;28;20492;-73
2022/12/19 01:55:44;;;;;;;45.03;27.67;;;;;;;;;;4993708;28;20043;-74
2022/12/19 01:58:31;;;;;;;48.67;28.48;;;;;;;;;;4992420;28;20050;-74
2022/12/19 02:01:17;;;;;;;53.75;29.85;;;;;;;;;;4992548;28;20158;-72
2022/12/19 02:04:04;;;;;;;53.08;28.85;;;;;;;;;;4991277;28;20050;-73
2022/12/19 02:06:51;;;;;;;55.10;29.58;;;;;;;;;;4991725;28;20050;-74
2022/12/19 02:09:38;;;;;;;55.33;29.70;;;;;;;;;;4987363;28;20054;-74
2022/12/19 02:12:29;;;;;;;52.08;28.73;;;;;;;;;;4989029;28;20480;-74
2022/12/19 02:15:16;;;;;;;56.22;31.10;;;;;;;;;;4976722;28;20046;-73
2022/12/19 02:18:24;;;;;;;58.25;30.88;;;;;;;;;;4986654;28;20054;-74
2022/12/19 02:21:28;;;;;;;54.05;30.27;;;;;;;;;;4985205;28;20045;-73
2022/12/19 02:24:32;;;;;;;61.08;31.52;;;;;;;;;;4987743;28;20046;-74
2022/12/19 02:27:18;;;;;;;59.22;32.83;;;;;;;;;;4987978;28;20038;-73
2022/12/19 02:30:16;;;;;;;60.75;33.33;;;;;;;;;;4984395;28;20054;-72
2022/12/19 02:33:11;;;;;;;70.30;35.10;;;;;;;;;;4985653;28;20539;-72
2022/12/19 02:36:09;;;;;;;67.65;33.90;;;;;;;;;;4988344;28;20128;-70
2022/12/19 02:38:58;;;;;;;67.25;34.65;;;;;;;;;;4987253;28;20420;-72
2022/12/19 02:41:47;;;;;;;71.93;34.70;;;;;;;;;;4988473;28;20051;-72
2022/12/19 02:44:42;;;;;;;75.18;35.95;;;;;;;;;;4989830;28;20130;-72
2022/12/19 02:47:30;;;;;;;73.95;36.55;;;;;;;;;;4988981;28;20053;-71
2022/12/19 02:50:16;;;;;;;75.13;37.33;;;;;;;;;;4976975;28;20053;-71
2022/12/19 02:53:02;;;;;;;77.47;38.60;;;;;;;;;;4987496;28;20197;-71
2022/12/19 02:56:07;;;;;;;77.05;36.13;;;;;;;;;;4986715;28;20050;-70
2022/12/19 02:59:20;;;;;;;84.45;38.58;;;;;;;;;;4990100;28;20497;-71
2022/12/19 03:02:13;;;;;;;83.28;38.85;;;;;;;;;;4973095;28;20046;-72
2022/12/19 03:05:07;;;;;;;88.50;40.65;;;;;;;;;;4985881;28;20042;-71
2022/12/19 03:07:57;;;;;;;81.13;38.28;;;;;;;;;;4984717;28;20043;-71
2022/12/19 03:10:52;;;;;;;85.97;38.85;;;;;;;;;;4990019;28;20141;-72
2022/12/19 03:13:44;;;;;;;85.22;41.72;;;;;;;;;;4989572;28;20730;-71
2022/12/19 03:16:33;;;;;;;91.10;40.75;;;;;;;;;;4990696;28;20488;-72
2022/12/19 03:19:19;;;;;;;90.57;40.53;;;;;;;;;;4989631;28;20045;-70
2022/12/19 03:22:06;;;;;;;96.40;43.38;;;;;;;;;;4987836;28;20050;-72
2022/12/19 03:24:53;;;;;;;93.88;42.03;;;;;;;;;;4987716;28;20583;-72
2022/12/19 03:27:39;;;;;;;96.13;44.83;;;;;;;;;;4990008;28;20054;-72
2022/12/19 03:30:26;;;;;;;96.32;42.78;;;;;;;;;;4990277;28;20050;-71
2022/12/19 03:33:13;;;;;;;98.93;45.05;;;;;;;;;;4987778;28;20084;-71
2022/12/19 03:36:03;;;;;;;95.10;44.42;;;;;;;;;;4989849;28;20133;-72
2022/12/19 03:38:49;;;;;;;99.47;44.65;;;;;;;;;;4987171;28;20078;-72
2022/12/19 03:44:41;;;;;;;105.32;46.67;;;;;;;;;;4985057;28;20069;-69
2022/12/19 03:47:48;;;;;;;115.05;47.60;;;;;;;;;;4986147;28;20170;-71
2022/12/19 03:51:01;;;;;;;116.75;49.70;;;;;;;;;;4982711;28;20104;-70
2022/12/19 03:54:01;;;;;;;108.50;46.85;;;;;;;;;;4974562;28;20050;-70
2022/12/19 03:57:06;;;;;;;112.97;48.78;;;;;;;;;;4988055;28;20053;-70
2022/12/19 04:00:04;;;;;;;121.13;49.97;;;;;;;;;;4988331;28;20108;-70
2022/12/19 04:02:52;;;;;;;119.68;51.20;;;;;;;;;;4986850;28;20141;-72
2022/12/19 04:05:39;;;;;;;119.93;51.55;;;;;;;;;;4992534;28;20042;-70
2022/12/19 04:08:26;;;;;;;119.38;51.15;;;;;;;;;;4985460;28;20054;-70
2022/12/19 04:11:19;;;;;;;121.05;52.60;;;;;;;;;;4985056;28;20050;-70
2022/12/19 04:14:05;;;;;;;;;;;;;;;;;;4985286;28;20479;-70
2022/12/19 04:16:57;;;;;;;115.25;50.45;;;;;;;;;;4990012;28;19973;-70
2022/12/19 04:19:47;;;;;;;112.85;50.63;;;;;;;;;;4984178;28;20046;-70
2022/12/19 04:22:36;;;;;;;119.13;51.72;;;;;;;;;;4986491;28;20047;-71
2022/12/19 04:25:25;;;;;;;123.78;51.17;;;;;;;;;;4987284;28;20046;-71
2022/12/19 04:28:22;;;;;;;115.70;50.75;;;;;;;;;;4991834;28;20050;-71
2022/12/19 04:31:10;;;;;;;116.20;53.80;;;;;;;;;;4987967;28;20049;-70
2022/12/19 04:33:57;;;;;;;110.47;47.67;;;;;;;;;;4990677;28;20130;-70
2022/12/19 04:36:43;;;;;;;113.28;49.40;;;;;;;;;;4989699;28;20854;-71
2022/12/19 04:39:29;;;;;;;106.65;49.65;;;;;;;;;;4988327;28;20129;-72
2022/12/19 04:42:16;;;;;;;107.32;49.33;;;;;;;;;;4985490;28;20097;-72
2022/12/19 04:45:03;;;;;;;110.47;48.65;;;;;;;;;;4987125;28;20046;-72
2022/12/19 04:47:49;;;;;;;108.45;47.33;;;;;;;;;;4985843;28;20060;-72
2022/12/19 04:50:36;;;;;;;112.32;49.53;;;;;;;;;;4986120;28;20413;-72
2022/12/19 04:53:22;;;;;;;101.13;47.90;;;;;;;;;;4983335;28;20046;-72
2022/12/19 04:56:09;;;;;;;105.28;47.83;;;;;;;;;;4971312;28;20476;-73
2022/12/19 04:58:56;;;;;;;101.20;47.15;;;;;;;;;;4985341;28;20201;-74
2022/12/19 05:01:43;;;;;;;108.55;46.03;;;;;;;;;;4985310;28;20439;-74
2022/12/19 05:04:29;;;;;;;105.18;48.60;;;;;;;;;;4983742;28;20101;-74
2022/12/19 05:07:18;;;;;;;110.47;47.13;;;;;;;;;;4986424;28;20038;-74
2022/12/19 05:10:05;;;;;;;113.95;49.78;;;;;;;;;;4985913;28;20050;-75
2022/12/19 05:12:53;;;;;;;116.22;46.75;;;;;;;;;;4986483;28;20049;-75
2022/12/19 05:15:39;;;;;;;120.50;49.47;;;;;;;;;;4985952;28;20096;-75
2022/12/19 05:18:26;;;;;;;110.15;47.33;;;;;;;;;;4986130;28;20038;-75
2022/12/19 05:21:12;;;;;;;112.35;49.58;;;;;;;;;;4985688;28;20480;-75
2022/12/19 05:23:58;;;;;;;115.43;48.28;;;;;;;;;;4984484;28;20045;-76
2022/12/19 05:26:45;;;;;;;112.28;47.33;;;;;;;;;;4986291;28;20493;-75
2022/12/19 05:29:31;;;;;;;115.78;48.42;;;;;;;;;;4984308;28;20054;-74
2022/12/19 05:32:17;;;;;;;113.95;46.63;;;;;;;;;;4985351;28;20100;-75
2022/12/19 05:35:04;;;;;;;101.35;44.60;;;;;;;;;;4984959;28;20046;-75
2022/12/19 05:37:50;;;;;;;107.00;46.30;;;;;;;;;;4982829;28;20046;-73
2022/12/19 05:40:37;;;;;;;95.70;44.20;;;;;;;;;;4984440;28;20162;-75
2022/12/19 05:43:23;;;;;;;105.82;44.75;;;;;;;;;;4987686;28;20477;-74
2022/12/19 05:46:10;;;;;;;97.70;43.90;;;;;;;;;;4985659;28;20134;-75
2022/12/19 05:48:58;;;;;;;93.53;39.92;;;;;;;;;;4972470;28;20064;-75
2022/12/19 05:51:47;;;;;;;88.93;39.55;;;;;;;;;;4984649;28;20050;-74
2022/12/19 05:54:33;;;;;;;78.05;37.83;;;;;;;;;;4983904;28;20132;-74
2022/12/19 05:57:20;;;;;;;85.63;38.15;;;;;;;;;;4973246;28;20046;-75
2022/12/19 06:00:09;;;;;;;83.22;38.63;;;;;;;;;;4987359;28;20065;-74
2022/12/19 06:02:56;;;;;;;79.28;37.58;;;;;;;;;;4986156;28;20074;-74
2022/12/19 06:05:42;;;;;;;81.07;37.55;;;;;;;;;;4971946;28;20404;-74
2022/12/19 06:08:28;;;;;;;83.53;38.30;;;;;;;;;;4984859;28;20530;-74
2022/12/19 06:11:15;;;;;;;78.35;36.72;;;;;;;;;;4985197;28;20049;-74
2022/12/19 06:14:01;;;;;;;77.22;35.08;;;;;;;;;;4992431;28;20050;-75
2022/12/19 06:16:47;;;;;;;76.97;34.28;;;;;;;;;;4989772;28;20054;-75
2022/12/19 06:19:34;;;;;;;74.57;35.80;;;;;;;;;;4986288;28;20054;-75
2022/12/19 06:22:20;;;;;;;81.65;37.40;;;;;;;;;;4982792;28;20133;-75
2022/12/19 06:25:06;;;;;;;80.32;38.22;;;;;;;;;;4984173;28;20077;-73
2022/12/19 06:27:53;;;;;;;75.15;36.58;;;;;;;;;;4987758;28;20057;-75
2022/12/19 06:30:39;;;;;;;75.30;34.72;;;;;;;;;;4980726;28;20058;-74
2022/12/19 06:33:26;;;;;;;73.38;32.40;;;;;;;;;;4986973;28;20046;-74
2022/12/19 06:36:14;;;;;;;66.95;31.55;;;;;;;;;;4987661;28;20046;-74
2022/12/19 06:39:01;;;;;;;72.13;34.25;;;;;;;;;;4987238;28;20120;-74
2022/12/19 06:44:53;;;;;;;62.28;31.35;;;;;;;;;;4988977;28;20065;-74
2022/12/19 06:47:39;;;;;;;59.80;30.55;;;;;;;;;;4987595;28;20061;-74
2022/12/19 06:50:25;;;;;;;63.03;30.95;;;;;;;;;;4988646;28;20133;-74
2022/12/19 06:53:12;;;;;;;57.90;29.33;;;;;;;;;;4989003;28;20046;-75
2022/12/19 06:55:58;;;;;;;65.35;31.30;;;;;;;;;;4974565;28;20382;-74
2022/12/19 06:58:45;;;;;;;61.65;29.92;;;;;;;;;;4989935;28;20452;-75
2022/12/19 07:01:31;;;;;;;58.90;29.40;;;;;;;;;;4979387;28;20038;-74
2022/12/19 07:04:19;;;;;;;63.15;31.58;;;;;;;;;;4973869;28;20646;-76
2022/12/19 07:07:07;;;;;;;58.97;29.40;;;;;;;;;;4987074;28;20043;-75
2022/12/19 07:09:53;;;;;;;61.95;31.00;;;;;;;;;;4986858;28;20677;-75
2022/12/19 07:12:39;;;;;;;56.95;30.95;;;;;;;;;;4989942;28;20504;-75
2022/12/19 07:15:26;;;;;;;64.50;30.75;;;;;;;;;;4973794;28;20065;-73
2022/12/19 07:18:12;;;;;;;60.45;28.65;;;;;;;;;;4988899;28;20452;-75
2022/12/19 07:20:58;;;;;;;54.58;28.00;;;;;;;;;;4990258;28;20050;-75
2022/12/19 07:23:45;;;;;;;58.88;30.50;;;;;;;;;;4976516;28;20393;-75
2022/12/19 07:26:31;;;;;;;61.60;29.23;;;;;;;;;;4967110;28;20552;-75
2022/12/19 07:29:18;;;;;;;56.22;28.50;;;;;;;;;;4975580;28;20039;-75
2022/12/19 07:32:04;;;;;;;55.38;27.08;;;;;;;;;;4990054;28;20050;-76
2022/12/19 07:34:53;;;;;;;61.30;30.50;;;;;;;;;;4989040;28;20048;-75
2022/12/19 07:37:40;;;;;;;52.45;27.17;;;;;;;;;;4981174;28;20050;-74
2022/12/19 07:40:26;;;;;;;49.10;25.55;;;;;;;;;;4987705;28;20452;-75
2022/12/19 07:43:12;;;;;;;54.22;27.63;;;;;;;;;;4975811;28;20108;-73
2022/12/19 07:45:59;;;;;;;56.63;27.52;;;;;;;;;;4986557;28;20038;-74
2022/12/19 07:48:45;;;;;;;54.88;26.10;;;;;;;;;;4989923;28;20489;-74
2022/12/19 07:51:32;;;;;;;51.28;25.05;;;;;;;;;;4986453;28;20101;-76
2022/12/19 07:54:18;;;;;;;47.92;24.70;;;;;;;;;;4988318;28;20125;-74
2022/12/19 07:57:05;;;;;;;47.53;27.70;;;;;;;;;;4987035;28;20072;-74
2022/12/19 07:59:51;;;;;;;44.15;24.45;;;;;;;;;;5004912;28;20050;-75
2022/12/19 08:02:38;;;;;;;43.75;24.88;;;;;;;;;;4993757;28;20096;-74
2022/12/19 08:05:24;;;;;;;49.08;26.05;;;;;;;;;;4978277;28;20053;-74
2022/12/19 08:08:10;;;;;;;47.67;25.73;;;;;;;;;;4989717;28;20058;-74
2022/12/19 08:11:11;;;;;;;48.28;26.10;;;;;;;;;;4993265;28;20468;-75
2022/12/19 08:13:57;;;;;;;49.22;26.35;;;;;;;;;;4985407;28;20575;-74
2022/12/19 08:16:44;;;;;;;50.10;27.67;;;;;;;;;;4992738;28;20057;-74
2022/12/19 08:19:30;;;;;;;46.25;25.92;;;;;;;;;;5015069;28;20041;-74
2022/12/19 08:22:16;;;;;;;48.22;26.00;;;;;;;;;;4993610;28;20054;-75
2022/12/19 08:25:03;;;;;;;48.83;25.15;;;;;;;;;;4993025;28;20500;-75
2022/12/19 08:27:49;;;;;;;40.10;23.42;;;;;;;;;;4978003;28;20042;-75
2022/12/19 08:30:37;;;;;;;43.45;23.95;;;;;;;;;;4982261;28;20057;-75
2022/12/19 08:33:24;;;;;;;40.97;23.30;;;;;;;;;;4989165;28;20057;-75
2022/12/19 08:36:12;;;;;;;43.33;25.08;;;;;;;;;;4987037;28;20061;-75
2022/12/19 08:38:58;;;;;;;43.28;25.23;;;;;;;;;;4983992;28;20125;-75
2022/12/19 08:41:44;;;;;;;44.17;24.75;;;;;;;;;;4974540;28;20055;-74
2022/12/19 08:44:31;;;;;;;42.30;24.25;;;;;;;;;;4976064;28;20046;-74
2022/12/19 08:47:17;;;;;;;47.05;26.23;;;;;;;;;;4976282;28;20524;-75
2022/12/19 08:50:03;;;;;;;48.42;27.65;;;;;;;;;;4991630;28;20092;-75
2022/12/19 08:52:50;;;;;;;54.03;28.02;;;;;;;;;;4990900;28;20053;-75
2022/12/19 08:55:36;;;;;;;50.30;28.13;;;;;;;;;;4978466;28;20102;-75
2022/12/19 08:58:23;;;;;;;47.13;26.60;;;;;;;;;;4975875;28;20122;-75
2022/12/19 09:01:14;;;;;;;42.25;24.80;;;;;;;;;;4987453;28;20054;-75
2022/12/19 09:04:01;;;;;;;46.60;27.90;;;;;;;;;;4989406;28;20108;-75
2022/12/19 09:06:47;;;;;;;50.13;28.85;;;;;;;;;;4989848;28;20043;-75
2022/12/19 09:09:36;;;;;;;49.55;27.75;;;;;;;;;;4978990;28;20129;-75
2022/12/19 09:12:23;;;;;;;46.55;27.88;;;;;;;;;;4990352;28;20058;-75
2022/12/19 09:15:09;;;;;;;50.83;29.17;;;;;;;;;;4990492;28;20046;-75
2022/12/19 09:17:56;;;;;;;52.30;30.90;;;;;;;;;;4992710;28;20050;-75
2022/12/19 09:20:42;;;;;;;56.45;31.63;;;;;;;;;;4985917;28;20054;-74
2022/12/19 09:23:30;;;;;;;53.63;30.88;;;;;;;;;;4989739;28;20382;-74
2022/12/19 09:26:17;;;;;;;55.03;29.95;;;;;;;;;;4989722;28;20081;-74
2022/12/19 09:29:04;;;;;;;54.95;31.52;;;;;;;;;;5000708;28;20046;-75
2022/12/19 09:31:51;;;;;;;52.17;30.08;;;;;;;;;;4994284;28;20137;-75
2022/12/19 09:34:37;;;;;;;56.28;30.88;;;;;;;;;;4986440;28;20050;-75
2022/12/19 09:37:23;;;;;;;52.47;29.27;;;;;;;;;;4987633;28;20046;-75
2022/12/19 09:40:15;;;;;;;51.63;30.60;;;;;;;;;;4982698;28;20559;-75
2022/12/19 09:43:05;;;;;;;57.92;30.92;;;;;;;;;;4979849;28;20042;-79
2022/12/19 09:45:59;;;;;;;55.22;31.33;;;;;;;;;;4972526;28;20077;-76
2022/12/19 09:48:46;;;;;;;58.45;29.02;;;;;;;;;;4990727;28;20042;-75
2022/12/19 09:51:38;;;;;;;51.95;27.88;;;;;;;;;;4989278;28;20097;-75
2022/12/19 09:54:28;;;;;;;49.05;29.88;;;;;;;;;;4989221;28;20050;-75
2022/12/19 09:57:17;;;;;;;46.78;27.20;;;;;;;;;;4987250;28;20137;-74
2022/12/19 10:00:24;;;;;;;46.28;27.08;;;;;;;;;;4973082;28;20077;-74
2022/12/19 10:03:17;;;;;;;49.70;27.23;;;;;;;;;;4989119;28;20077;-75
2022/12/19 10:06:04;;;;;;;46.25;26.17;;;;;;;;;;4991607;28;20492;-75
2022/12/19 10:08:51;;;;;;;42.10;24.40;;;;;;;;;;4990634;28;20402;-75
2022/12/19 10:11:50;;;;;;;44.10;25.73;;;;;;;;;;4983603;28;20050;-75
2022/12/19 10:14:36;;;;;;;40.83;24.52;;;;;;;;;;4990551;28;20050;-75
2022/12/19 10:17:34;;;;;;;43.47;25.17;;;;;;;;;;4990863;28;20049;-75
2022/12/19 10:20:27;;;;;;;37.53;23.27;;;;;;;;;;4989285;28;20045;-76
2022/12/19 10:23:22;;;;;;;42.97;25.90;;;;;;;;;;4989258;28;20486;-74
2022/12/19 10:26:19;;;;;;;38.50;24.08;;;;;;;;;;4983679;28;20411;-75
2022/12/19 10:29:32;;;;;;;39.50;23.23;;;;;;;;;;4982462;28;20042;-75
2022/12/19 10:32:29;;;;;;;35.37;22.97;;;;;;;;;;4988637;28;20249;-75
2022/12/19 10:35:17;;;;;;;38.75;22.92;;;;;;;;;;4989863;28;20042;-75
2022/12/19 10:38:06;;;;;;;35.45;22.17;;;;;;;;;;4989134;28;20078;-75
2022/12/19 10:41:16;;;;;;;34.95;21.50;;;;;;;;;;4988541;28;20508;-76
2022/12/19 10:44:08;;;;;;;36.00;21.42;;;;;;;;;;4978921;28;20042;-75
2022/12/19 10:46:54;;;;;;;34.50;21.03;;;;;;;;;;4989237;28;20089;-75
2022/12/19 10:49:41;;;;;;;36.60;22.20;;;;;;;;;;4989517;28;20042;-76
2022/12/19 10:52:46;;;;;;;29.48;20.35;;;;;;;;;;4990300;28;20050;-76
2022/12/19 10:55:35;;;;;;;33.55;21.38;;;;;;;;;;4984579;28;20460;-75
2022/12/19 10:58:26;;;;;;;29.80;18.70;;;;;;;;;;4989533;28;20050;-76
2022/12/19 11:01:18;;;;;;;27.27;19.25;;;;;;;;;;4986562;28;20042;-76
2022/12/19 11:04:21;;;;;;;31.58;20.13;;;;;;;;;;4990794;28;20068;-76
2022/12/19 11:07:21;;;;;;;28.42;19.25;;;;;;;;;;4979766;28;20045;-75
2022/12/19 11:10:26;;;;;;;26.55;17.30;;;;;;;;;;5003836;28;20093;-75
2022/12/19 11:13:20;;;;;;;25.40;18.52;;;;;;;;;;4989420;28;20050;-75
2022/12/19 11:16:07;;;;;;;25.50;17.40;;;;;;;;;;4984874;28;20046;-75
2022/12/19 11:18:53;;;;;;;24.77;19.13;;;;;;;;;;4989322;28;20050;-75
2022/12/19 11:21:40;;;;;;;26.70;17.02;;;;;;;;;;4989665;28;20129;-74
2022/12/19 11:24:34;;;;;;;28.17;17.92;;;;;;;;;;4990750;28;20109;-75
2022/12/19 11:27:31;;;;;;;25.52;17.73;;;;;;;;;;4989256;28;20046;-75
2022/12/19 11:30:20;;;;;;;29.30;18.17;;;;;;;;;;4988757;28;20043;-74
2022/12/19 11:33:12;;;;;;;25.45;18.60;;;;;;;;;;4988003;28;20042;-75
2022/12/19 11:35:59;;;;;;;26.17;16.95;;;;;;;;;;4983710;28;20069;-74
2022/12/19 11:38:51;;;;;;;27.25;18.52;;;;;;;;;;4990767;28;20512;-74
2022/12/19 11:41:45;;;;;;;25.33;17.80;;;;;;;;;;4990695;28;20512;-74
2022/12/19 11:44:54;;;;;;;29.98;19.45;;;;;;;;;;4994580;28;20313;-72
2022/12/19 11:47:53;;;;;;;28.08;18.05;;;;;;;;;;4991148;28;20050;-74
2022/12/19 11:50:48;;;;;;;24.05;16.48;;;;;;;;;;4991571;28;20089;-74
2022/12/19 11:53:53;;;;;;;25.38;17.33;;;;;;;;;;4989370;28;20417;-75
2022/12/19 11:56:40;;;;;;;26.10;18.42;;;;;;;;;;4984283;28;21156;-75
2022/12/19 11:59:35;;;;;;;26.98;18.73;;;;;;;;;;4990695;28;20057;-74
2022/12/19 12:02:21;;;;;;;26.35;18.77;;;;;;;;;;4987388;28;20042;-75
2022/12/19 12:05:27;;;;;;;29.15;19.58;;;;;;;;;;4986542;28;20213;-75
2022/12/19 12:08:38;;;;;;;27.35;16.55;;;;;;;;;;4992873;28;20038;-74
2022/12/19 12:11:40;;;;;;;28.83;17.48;;;;;;;;;;4990009;28;20046;-75
2022/12/19 12:14:32;;;;;;;23.95;16.70;;;;;;;;;;4984308;28;20045;-74
2022/12/19 12:17:19;;;;;;;21.30;15.90;;;;;;;;;;4984606;28;20049;-74
2022/12/19 12:20:31;;;;;;;22.02;16.35;;;;;;;;;;4990404;28;20515;-75
2022/12/19 12:23:30;;;;;;;22.50;16.77;;;;;;;;;;4973534;28;20570;-75
2022/12/19 12:26:37;;;;;;;24.50;16.45;;;;;;;;;;4975529;28;20061;-75
2022/12/19 12:29:24;;;;;;;25.25;16.45;;;;;;;;;;4990068;28;20461;-76
2022/12/19 12:32:14;;;;;;;19.77;15.48;;;;;;;;;;4988369;28;20042;-74
2022/12/19 12:35:00;;;;;;;22.73;16.90;;;;;;;;;;4986604;28;20053;-75
2022/12/19 12:37:49;;;;;;;23.42;15.40;;;;;;;;;;4992338;28;20074;-75
2022/12/19 12:40:44;;;;;;;20.48;15.38;;;;;;;;;;4991794;28;20054;-75
2022/12/19 12:43:30;;;;;;;18.95;15.15;;;;;;;;;;4982852;28;20105;-75
2022/12/19 12:46:20;;;;;;;21.70;15.88;;;;;;;;;;4971368;28;20061;-75
2022/12/19 12:49:20;;;;;;;23.55;15.55;;;;;;;;;;4982367;28;20047;-75
2022/12/19 12:52:08;;;;;;;22.42;14.85;;;;;;;;;;4982743;28;20054;-74
2022/12/19 12:54:55;;;;;;;21.42;16.25;;;;;;;;;;4984852;28;20042;-75
2022/12/19 12:57:41;;;;;;;22.63;15.98;;;;;;;;;;4983791;28;20046;-74
2022/12/19 13:00:29;;;;;;;24.17;16.58;;;;;;;;;;4984362;28;20069;-72
2022/12/19 13:03:16;;;;;;;21.92;16.35;;;;;;;;;;4978671;28;20460;-74
2022/12/19 13:06:17;;;;;;;23.08;17.75;;;;;;;;;;4987632;28;20049;-75
2022/12/19 13:09:19;;;;;;;25.80;17.08;;;;;;;;;;4989743;28;20085;-73
2022/12/19 13:15:31;;;;;;;20.52;15.82;;;;;;;;;;4992240;28;20129;-74
2022/12/19 13:18:34;;;;;;;21.92;16.40;;;;;;;;;;4984935;28;20054;-74
2022/12/19 13:21:21;;;;;;;21.45;15.80;;;;;;;;;;4990669;28;20528;-74
2022/12/19 13:24:20;;;;;;;23.25;15.98;;;;;;;;;;4992993;28;20070;-75
2022/12/19 13:27:31;;;;;;;24.45;17.17;;;;;;;;;;4990769;28;20493;-75
2022/12/19 13:30:18;;;;;;;24.23;16.25;;;;;;;;;;4985374;28;20124;-74
2022/12/19 13:33:04;;;;;;;24.70;16.17;;;;;;;;;;4991729;28;20054;-74
2022/12/19 13:35:51;;;;;;;19.15;14.95;;;;;;;;;;4989180;28;20109;-73
2022/12/19 13:38:49;;;;;;;23.92;15.13;;;;;;;;;;4991446;28;20062;-74
2022/12/19 13:44:49;;;;;;;20.70;15.30;;;;;;;;;;4988751;28;20053;-74
2022/12/19 13:47:37;;;;;;;20.80;14.82;;;;;;;;;;4989365;28;20043;-75
2022/12/19 13:50:30;;;;;;;19.70;14.43;;;;;;;;;;4992022;28;20042;-75
2022/12/19 13:53:17;;;;;;;21.15;14.52;;;;;;;;;;4979492;28;20042;-76
2022/12/19 13:56:05;;;;;;;17.25;13.73;;;;;;;;;;4990257;28;20132;-75
2022/12/19 13:58:57;;;;;;;21.00;13.40;;;;;;;;;;4989677;28;20050;-76
2022/12/19 14:01:43;;;;;;;20.08;13.77;;;;;;;;;;4981261;28;20137;-76
2022/12/19 14:04:33;;;;;;;14.27;11.90;;;;;;;;;;4989684;28;20040;-76
2022/12/19 14:07:26;;;;;;;16.70;12.95;;;;;;;;;;4990512;28;20046;-77
2022/12/19 14:10:18;;;;;;;16.75;12.50;;;;;;;;;;4990617;28;20046;-76
2022/12/19 14:16:15;;;;;;;14.55;11.18;;;;;;;;;;4989446;28;20057;-77
2022/12/19 14:19:02;;;;;;;14.98;11.35;;;;;;;;;;4991109;28;20050;-76
2022/12/19 14:21:48;;;;;;;14.48;10.90;;;;;;;;;;4981167;28;20117;-76
2022/12/19 14:24:34;;;;;;;13.80;10.98;;;;;;;;;;4991357;28;20046;-76
2022/12/19 14:27:22;;;;;;;16.58;11.32;;;;;;;;;;4986965;28;20038;-76
2022/12/19 14:30:20;;;;;;;13.27;10.80;;;;;;;;;;4989326;28;20043;-76
2022/12/19 14:33:11;;;;;;;13.20;10.30;;;;;;;;;;4987367;28;20050;-76
2022/12/19 14:35:57;;;;;;;14.90;10.30;;;;;;;;;;4984386;28;20051;-76
2022/12/19 14:38:45;;;;;;;17.70;11.52;;;;;;;;;;4989223;28;20137;-75
2022/12/19 14:44:43;;;;;;;13.32;9.82;;;;;;;;;;4985356;28;20042;-76
2022/12/19 14:47:48;;;;;;;13.60;10.60;;;;;;;;;;4987745;28;20038;-75
2022/12/19 14:50:37;;;;;;;14.68;9.80;;;;;;;;;;4988497;28;20049;-75
2022/12/19 14:53:24;;;;;;;16.35;10.23;;;;;;;;;;4982414;28;20057;-74
2022/12/19 14:56:15;;;;;;;14.40;10.18;;;;;;;;;;4987488;28;20117;-74
2022/12/19 14:59:01;;;;;;;14.43;10.52;;;;;;;;;;5004862;28;20050;-75
2022/12/19 15:02:12;;;;;;;13.23;10.10;;;;;;;;;;4981730;28;20073;-74
2022/12/19 15:05:01;;;;;;;16.08;9.98;;;;;;;;;;4991144;28;20108;-75
2022/12/19 15:07:49;;;;;;;14.05;9.73;;;;;;;;;;4976359;28;20053;-74
2022/12/19 15:10:35;;;;;;;13.25;9.98;;;;;;;;;;4981735;28;20043;-75
2022/12/19 15:13:25;;;;;;;15.00;9.95;;;;;;;;;;4988573;28;20046;-74
2022/12/19 15:16:22;;;;;;;12.75;9.30;;;;;;;;;;5004550;28;20042;-75
2022/12/19 15:19:12;;;;;;;14.60;10.38;;;;;;;;;;4986679;28;20046;-74
2022/12/19 15:21:58;;;;;;;12.63;10.02;;;;;;;;;;4969564;28;20050;-75
2022/12/19 15:24:45;;;;;;;12.68;9.50;;;;;;;;;;4991213;28;20050;-74
2022/12/19 15:27:31;;;;;;;14.07;10.00;;;;;;;;;;4982928;28;20556;-74
2022/12/19 15:30:20;;;;;;;12.07;9.32;;;;;;;;;;4990599;28;20057;-74
2022/12/19 15:33:12;;;;;;;11.27;8.93;;;;;;;;;;4987007;28;20129;-74
2022/12/19 15:35:58;;;;;;;13.33;9.77;;;;;;;;;;4989025;28;20050;-74
2022/12/19 15:38:45;;;;;;;12.43;9.02;;;;;;;;;;4974894;28;20081;-74
2022/12/19 15:41:31;;;;;;;10.23;8.55;;;;;;;;;;4987134;28;20556;-74
2022/12/19 15:44:20;;;;;;;12.25;9.00;;;;;;;;;;4988094;28;20053;-74
2022/12/19 15:47:13;;;;;;;10.95;8.40;;;;;;;;;;4985322;28;20129;-74
2022/12/19 15:50:02;;;;;;;13.70;8.85;;;;;;;;;;4986396;28;20111;-75
2022/12/19 15:52:49;;;;;;;12.27;8.65;;;;;;;;;;4990222;28;20124;-74
2022/12/19 15:55:38;;;;;;;11.77;8.80;;;;;;;;;;4990162;28;20046;-74
2022/12/19 15:58:28;;;;;;;10.25;8.52;;;;;;;;;;4976488;28;20054;-75
2022/12/19 16:01:15;;;;;;;12.05;8.70;;;;;;;;;;4985962;28;20128;-75
2022/12/19 16:04:02;;;;;;;11.27;8.52;;;;;;;;;;4982248;28;20051;-75
2022/12/19 16:06:48;;;;;;;11.80;8.98;;;;;;;;;;4987122;28;20050;-74
2022/12/19 16:09:34;;;;;;;10.63;8.50;;;;;;;;;;4988485;28;20117;-75
2022/12/19 16:12:25;;;;;;;9.35;8.10;;;;;;;;;;4973962;28;20064;-75
2022/12/19 16:15:14;;;;;;;12.93;8.05;;;;;;;;;;4986590;28;20051;-75
2022/12/19 16:18:02;;;;;;;15.07;9.15;;;;;;;;;;4988668;28;20046;-76
2022/12/19 16:20:48;;;;;;;14.77;8.75;;;;;;;;;;4990629;28;20065;-76
2022/12/19 16:23:34;;;;;;;12.15;9.23;;;;;;;;;;5009938;28;20101;-76
2022/12/19 16:26:28;;;;;;;13.23;9.50;;;;;;;;;;4990396;28;20046;-76
2022/12/19 16:29:25;;;;;;;13.02;9.60;;;;;;;;;;5003279;28;20455;-74
2022/12/19 16:32:12;;;;;;;11.95;9.95;;;;;;;;;;4963129;28;20401;-75
2022/12/19 16:34:59;;;;;;;13.90;10.48;;;;;;;;;;4975239;28;20053;-76
2022/12/19 16:37:45;;;;;;;13.60;9.98;;;;;;;;;;4991499;28;20062;-76
2022/12/19 16:40:31;;;;;;;14.18;10.82;;;;;;;;;;4988381;28;20070;-76
2022/12/19 16:43:30;;;;;;;16.23;10.70;;;;;;;;;;4992584;28;20070;-75
2022/12/19 16:46:18;;;;;;;15.35;10.60;;;;;;;;;;4988522;28;20045;-76